sensor_id;sensor_type;location;lat;lon;timestamp;pressure;altitude;pressure_sealevel;temperature;humidity
40730;BME280;26418;50.070;8.436;2024-02-16T00:00:08;99783.88;;;10.03;100.00
40730;BME280;26418;50.070;8.436;2024-02-16T00:02:36;99785.19;;;10.06;100.00
40730;BME280;26418;50.070;8.436;2024-02-16T00:05:02;99789.78;;;10.05;100.00
40730;BME280;26418;50.070;8.436;2024-02-16T00:07:29;99786.50;;;10.09;100.00
40730;BME280;26418;50.070;8.436;2024-02-16T00:09:54;99783.28;;;10.06;100.00
40730;BME280;26418;50.070;8.436;2024-02-16T00:12:20;99790.50;;;10.11;100.00
40730;BME280;26418;50.070;8.436;2024-02-16T00:14:45;99788.09;;;10.10;100.00
40730;BME280;26418;50.070;8.436;2024-02-16T00:17:11;99781.59;;;10.11;100.00
40730;BME280;26418;50.070;8.436;2024-02-16T00:19:37;99771.97;;;10.04;100.00
40730;BME280;26418;50.070;8.436;2024-02-16T00:22:02;99759.34;;;10.00;100.00
40730;BME280;26418;50.070;8.436;2024-02-16T00:24:29;99778.91;;;10.11;100.00
40730;BME280;26418;50.070;8.436;2024-02-16T00:26:57;99770.38;;;10.03;100.00
40730;BME280;26418;50.070;8.436;2024-02-16T00:29:22;99763.66;;;10.01;100.00
40730;BME280;26418;50.070;8.436;2024-02-16T00:31:48;99759.66;;;9.98;100.00
40730;BME280;26418;50.070;8.436;2024-02-16T00:34:14;99745.44;;;9.93;100.00
40730;BME280;26418;50.070;8.436;2024-02-16T00:36:39;99748.47;;;9.91;100.00
40730;BME280;26418;50.070;8.436;2024-02-16T00:39:05;99737.06;;;9.80;100.00
40730;BME280;26418;50.070;8.436;2024-02-16T00:41:31;99765.88;;;9.99;100.00
40730;BME280;26418;50.070;8.436;2024-02-16T00:43:56;99743.16;;;9.86;100.00
40730;BME280;26418;50.070;8.436;2024-02-16T00:46:22;99757.34;;;9.91;100.00
40730;BME280;26418;50.070;8.436;2024-02-16T00:48:52;99742.47;;;9.80;100.00
40730;BME280;26418;50.070;8.436;2024-02-16T00:51:19;99755.06;;;9.85;100.00
40730;BME280;26418;50.070;8.436;2024-02-16T00:53:45;99752.38;;;9.85;100.00
40730;BME280;26418;50.070;8.436;2024-02-16T00:56:11;99761.66;;;9.93;100.00
40730;BME280;26418;50.070;8.436;2024-02-16T00:58:40;99747.66;;;9.90;100.00
40730;BME280;26418;50.070;8.436;2024-02-16T01:01:06;99754.84;;;9.95;100.00
40730;BME280;26418;50.070;8.436;2024-02-16T01:03:36;99751.06;;;9.96;100.00
40730;BME280;26418;50.070;8.436;2024-02-16T01:06:03;99748.84;;;9.98;100.00
40730;BME280;26418;50.070;8.436;2024-02-16T01:08:28;99739.34;;;9.87;100.00
40730;BME280;26418;50.070;8.436;2024-02-16T01:10:55;99747.56;;;9.96;100.00
40730;BME280;26418;50.070;8.436;2024-02-16T01:13:21;99741.47;;;9.90;100.00
40730;BME280;26418;50.070;8.436;2024-02-16T01:15:46;99752.16;;;9.95;100.00
40730;BME280;26418;50.070;8.436;2024-02-16T01:18:12;99748.97;;;9.93;100.00
40730;BME280;26418;50.070;8.436;2024-02-16T01:20:37;99726.84;;;9.77;100.00
40730;BME280;26418;50.070;8.436;2024-02-16T01:23:03;99745.63;;;9.82;100.00
40730;BME280;26418;50.070;8.436;2024-02-16T01:25:30;99748.66;;;9.81;100.00
40730;BME280;26418;50.070;8.436;2024-02-16T01:27:56;99745.63;;;9.82;100.00
40730;BME280;26418;50.070;8.436;2024-02-16T01:30:22;99746.16;;;9.84;100.00
40730;BME280;26418;50.070;8.436;2024-02-16T01:32:47;99742.47;;;9.80;100.00
40730;BME280;26418;50.070;8.436;2024-02-16T01:35:13;99759.38;;;9.86;100.00
40730;BME280;26418;50.070;8.436;2024-02-16T01:37:41;99755.66;;;9.82;100.00
40730;BME280;26418;50.070;8.436;2024-02-16T01:40:10;99755.66;;;9.82;100.00
40730;BME280;26418;50.070;8.436;2024-02-16T01:42:43;99754.94;;;9.76;100.00
40730;BME280;26418;50.070;8.436;2024-02-16T01:45:10;99763.75;;;9.82;100.00
40730;BME280;26418;50.070;8.436;2024-02-16T01:47:41;99762.47;;;9.79;100.00
40730;BME280;26418;50.070;8.436;2024-02-16T01:50:08;99760.56;;;9.80;100.00
40730;BME280;26418;50.070;8.436;2024-02-16T01:52:35;99756.56;;;9.77;100.00
40730;BME280;26418;50.070;8.436;2024-02-16T01:55:03;99753.34;;;9.75;100.00
40730;BME280;26418;50.070;8.436;2024-02-16T01:57:30;99759.25;;;9.77;100.00
40730;BME280;26418;50.070;8.436;2024-02-16T01:59:57;99755.47;;;9.78;100.00
40730;BME280;26418;50.070;8.436;2024-02-16T02:02:22;99754.94;;;9.76;100.00
40730;BME280;26418;50.070;8.436;2024-02-16T02:04:48;99762.16;;;9.81;100.00
40730;BME280;26418;50.070;8.436;2024-02-16T02:07:15;99761.56;;;9.84;100.00
40730;BME280;26418;50.070;8.436;2024-02-16T02:09:41;99764.53;;;9.82;100.00
40730;BME280;26418;50.070;8.436;2024-02-16T02:12:08;99764.84;;;9.81;100.00
40730;BME280;26418;50.070;8.436;2024-02-16T02:14:34;99747.47;;;9.73;100.00
40730;BME280;26418;50.070;8.436;2024-02-16T02:16:59;99754.06;;;9.81;100.00
40730;BME280;26418;50.070;8.436;2024-02-16T02:19:26;99745.75;;;9.77;100.00
40730;BME280;26418;50.070;8.436;2024-02-16T02:21:51;99726.94;;;9.72;100.00
40730;BME280;26418;50.070;8.436;2024-02-16T02:24:17;99746.78;;;9.81;100.00
40730;BME280;26418;50.070;8.436;2024-02-16T02:26:43;99737.13;;;9.75;100.00
40730;BME280;26418;50.070;8.436;2024-02-16T02:29:08;99739.56;;;9.77;100.00
40730;BME280;26418;50.070;8.436;2024-02-16T02:31:34;99740.94;;;9.74;100.00
40730;BME280;26418;50.070;8.436;2024-02-16T02:34:00;99743.16;;;9.72;100.00
40730;BME280;26418;50.070;8.436;2024-02-16T02:36:26;99733.25;;;9.67;100.00
40730;BME280;26418;50.070;8.436;2024-02-16T02:38:52;99722.31;;;9.58;100.00
40730;BME280;26418;50.070;8.436;2024-02-16T02:41:17;99720.44;;;9.59;100.00
40730;BME280;26418;50.070;8.436;2024-02-16T02:43:45;99733.31;;;9.62;100.00
40730;BME280;26418;50.070;8.436;2024-02-16T02:46:15;99725.84;;;9.59;100.00
40730;BME280;26418;50.070;8.436;2024-02-16T02:48:43;99733.84;;;9.64;100.00
40730;BME280;26418;50.070;8.436;2024-02-16T02:51:09;99723.13;;;9.59;100.00
40730;BME280;26418;50.070;8.436;2024-02-16T02:53:35;99731.34;;;9.68;100.00
40730;BME280;26418;50.070;8.436;2024-02-16T02:56:01;99718.84;;;9.58;100.00
40730;BME280;26418;50.070;8.436;2024-02-16T02:58:27;99734.75;;;9.73;100.00
40730;BME280;26418;50.070;8.436;2024-02-16T03:00:54;99718.13;;;9.66;100.00
40730;BME280;26418;50.070;8.436;2024-02-16T03:03:20;99691.84;;;9.58;100.00
40730;BME280;26418;50.070;8.436;2024-02-16T03:05:46;99726.25;;;9.80;100.00
40730;BME280;26418;50.070;8.436;2024-02-16T03:08:12;99724.84;;;9.83;100.00
40730;BME280;26418;50.070;8.436;2024-02-16T03:10:37;99731.44;;;9.90;100.00
40730;BME280;26418;50.070;8.436;2024-02-16T03:13:04;99723.44;;;9.85;100.00
40730;BME280;26418;50.070;8.436;2024-02-16T03:15:31;99738.38;;;9.97;100.00
40730;BME280;26418;50.070;8.436;2024-02-16T03:17:57;99718.25;;;9.89;100.00
40730;BME280;26418;50.070;8.436;2024-02-16T03:20:22;99722.34;;;10.00;100.00
40730;BME280;26418;50.070;8.436;2024-02-16T03:22:48;99739.66;;;10.13;100.00
40730;BME280;26418;50.070;8.436;2024-02-16T03:25:14;99729.44;;;10.10;100.00
40730;BME280;26418;50.070;8.436;2024-02-16T03:27:40;99724.66;;;10.07;100.00
40730;BME280;26418;50.070;8.436;2024-02-16T03:30:07;99723.34;;;10.04;100.00
40730;BME280;26418;50.070;8.436;2024-02-16T03:32:33;99738.63;;;10.09;100.00
40730;BME280;26418;50.070;8.436;2024-02-16T03:34:59;99719.34;;;10.02;100.00
40730;BME280;26418;50.070;8.436;2024-02-16T03:37:25;99744.66;;;10.06;100.00
40730;BME280;26418;50.070;8.436;2024-02-16T03:39:51;99735.25;;;10.03;100.00
40730;BME280;26418;50.070;8.436;2024-02-16T03:42:16;99728.84;;;9.99;100.00
40730;BME280;26418;50.070;8.436;2024-02-16T03:44:45;99732.16;;;9.96;100.00
40730;BME280;26418;50.070;8.436;2024-02-16T03:47:11;99725.75;;;9.92;100.00
40730;BME280;26418;50.070;8.436;2024-02-16T03:49:37;99718.84;;;9.86;100.00
40730;BME280;26418;50.070;8.436;2024-02-16T03:52:03;99734.66;;;9.93;100.00
40730;BME280;26418;50.070;8.436;2024-02-16T03:54:28;99736.06;;;9.90;100.00
40730;BME280;26418;50.070;8.436;2024-02-16T03:56:55;99729.66;;;9.86;100.00
40730;BME280;26418;50.070;8.436;2024-02-16T03:59:21;99738.25;;;9.88;100.00
40730;BME280;26418;50.070;8.436;2024-02-16T04:01:46;99748.25;;;9.87;100.00
40730;BME280;26418;50.070;8.436;2024-02-16T04:04:12;99723.75;;;9.84;100.00
40730;BME280;26418;50.070;8.436;2024-02-16T04:06:38;99716.34;;;9.75;100.00
40730;BME280;26418;50.070;8.436;2024-02-16T04:09:04;99743.97;;;9.86;100.00
40730;BME280;26418;50.070;8.436;2024-02-16T04:11:33;99745.88;;;9.86;100.00
40730;BME280;26418;50.070;8.436;2024-02-16T04:13:59;99743.75;;;9.83;100.00
40730;BME280;26418;50.070;8.436;2024-02-16T04:16:25;99758.25;;;9.87;100.00
40730;BME280;26418;50.070;8.436;2024-02-16T04:18:51;99748.06;;;9.84;100.00
40730;BME280;26418;50.070;8.436;2024-02-16T04:21:17;99762.34;;;9.84;100.00
40730;BME280;26418;50.070;8.436;2024-02-16T04:23:43;99761.84;;;9.82;100.00
40730;BME280;26418;50.070;8.436;2024-02-16T04:26:09;99747.94;;;9.75;100.00
40730;BME280;26418;50.070;8.436;2024-02-16T04:28:35;99745.53;;;9.73;100.00
40730;BME280;26418;50.070;8.436;2024-02-16T04:31:01;99754.94;;;9.76;100.00
40730;BME280;26418;50.070;8.436;2024-02-16T04:33:27;99738.66;;;9.67;100.00
40730;BME280;26418;50.070;8.436;2024-02-16T04:35:52;99747.75;;;9.71;100.00
40730;BME280;26418;50.070;8.436;2024-02-16T04:38:18;99751.47;;;9.75;100.00
40730;BME280;26418;50.070;8.436;2024-02-16T04:40:45;99760.97;;;9.73;100.00
40730;BME280;26418;50.070;8.436;2024-02-16T04:43:10;99748.03;;;9.70;100.00
40730;BME280;26418;50.070;8.436;2024-02-16T04:45:36;99745.16;;;9.66;100.00
40730;BME280;26418;50.070;8.436;2024-02-16T04:48:05;99763.56;;;9.78;100.00
40730;BME280;26418;50.070;8.436;2024-02-16T04:50:35;99763.56;;;9.78;100.00
40730;BME280;26418;50.070;8.436;2024-02-16T04:53:01;99763.03;;;9.76;100.00
40730;BME280;26418;50.070;8.436;2024-02-16T04:55:27;99762.78;;;9.78;100.00
40730;BME280;26418;50.070;8.436;2024-02-16T04:57:54;99763.34;;;9.74;100.00
40730;BME280;26418;50.070;8.436;2024-02-16T05:00:20;99762.94;;;9.67;100.00
40730;BME280;26418;50.070;8.436;2024-02-16T05:02:46;99771.31;;;9.66;100.00
40730;BME280;26418;50.070;8.436;2024-02-16T05:05:12;99762.81;;;9.58;100.00
40730;BME280;26418;50.070;8.436;2024-02-16T05:07:38;99772.00;;;9.57;100.00
40730;BME280;26418;50.070;8.436;2024-02-16T05:10:08;99771.53;;;9.55;100.00
40730;BME280;26418;50.070;8.436;2024-02-16T05:12:33;99770.00;;;9.49;100.00
40730;BME280;26418;50.070;8.436;2024-02-16T05:14:59;99756.19;;;9.37;100.00
40730;BME280;26418;50.070;8.436;2024-02-16T05:17:25;99760.50;;;9.38;100.00
40730;BME280;26418;50.070;8.436;2024-02-16T05:19:51;99767.28;;;9.35;100.00
40730;BME280;26418;50.070;8.436;2024-02-16T05:22:17;99756.66;;;9.25;100.00
40730;BME280;26418;50.070;8.436;2024-02-16T05:24:44;99767.66;;;9.28;100.00
40730;BME280;26418;50.070;8.436;2024-02-16T05:27:10;99749.25;;;9.17;100.00
40730;BME280;26418;50.070;8.436;2024-02-16T05:29:36;99753.97;;;9.25;100.00
40730;BME280;26418;50.070;8.436;2024-02-16T05:32:01;99765.25;;;9.27;100.00
40730;BME280;26418;50.070;8.436;2024-02-16T05:34:27;99758.84;;;9.23;100.00
40730;BME280;26418;50.070;8.436;2024-02-16T05:36:57;99764.16;;;9.28;100.00
40730;BME280;26418;50.070;8.436;2024-02-16T05:39:23;99764.97;;;9.28;100.00
40730;BME280;26418;50.070;8.436;2024-02-16T05:41:55;99758.25;;;9.26;100.00
40730;BME280;26418;50.070;8.436;2024-02-16T05:44:21;99765.16;;;9.32;100.00
40730;BME280;26418;50.070;8.436;2024-02-16T05:46:46;99771.34;;;9.33;100.00
40730;BME280;26418;50.070;8.436;2024-02-16T05:49:16;99762.16;;;9.34;100.00
40730;BME280;26418;50.070;8.436;2024-02-16T05:51:41;99764.06;;;9.33;100.00
40730;BME280;26418;50.070;8.436;2024-02-16T05:54:07;99761.69;;;9.32;100.00
40730;BME280;26418;50.070;8.436;2024-02-16T05:56:36;99765.97;;;9.33;100.00
40730;BME280;26418;50.070;8.436;2024-02-16T05:59:04;99754.97;;;9.29;100.00
40730;BME280;26418;50.070;8.436;2024-02-16T06:01:30;99768.38;;;9.34;100.00
40730;BME280;26418;50.070;8.436;2024-02-16T06:03:56;99761.38;;;9.33;100.00
40730;BME280;26418;50.070;8.436;2024-02-16T06:06:22;99772.00;;;9.43;100.00
40730;BME280;26418;50.070;8.436;2024-02-16T06:08:47;99764.72;;;9.58;100.00
40730;BME280;26418;50.070;8.436;2024-02-16T06:11:13;99765.66;;;9.81;100.00
40730;BME280;26418;50.070;8.436;2024-02-16T06:13:38;99761.28;;;9.99;100.00
40730;BME280;26418;50.070;8.436;2024-02-16T06:16:07;99756.16;;;10.12;100.00
40730;BME280;26418;50.070;8.436;2024-02-16T06:18:34;99767.56;;;10.36;100.00
40730;BME280;26418;50.070;8.436;2024-02-16T06:21:01;99763.25;;;10.49;100.00
40730;BME280;26418;50.070;8.436;2024-02-16T06:23:27;99769.13;;;10.65;100.00
40730;BME280;26418;50.070;8.436;2024-02-16T06:25:52;99765.09;;;10.77;100.00
40730;BME280;26418;50.070;8.436;2024-02-16T06:28:18;99766.16;;;10.90;100.00
40730;BME280;26418;50.070;8.436;2024-02-16T06:30:43;99769.94;;;11.03;100.00
40730;BME280;26418;50.070;8.436;2024-02-16T06:33:09;99774.09;;;11.09;100.00
40730;BME280;26418;50.070;8.436;2024-02-16T06:35:35;99778.66;;;10.99;100.00
40730;BME280;26418;50.070;8.436;2024-02-16T06:38:01;99789.19;;;10.87;100.00
40730;BME280;26418;50.070;8.436;2024-02-16T06:40:26;99792.75;;;10.74;100.00
40730;BME280;26418;50.070;8.436;2024-02-16T06:42:52;99776.47;;;10.51;100.00
40730;BME280;26418;50.070;8.436;2024-02-16T06:45:17;99788.50;;;10.45;100.00
40730;BME280;26418;50.070;8.436;2024-02-16T06:47:43;99780.00;;;10.23;100.00
40730;BME280;26418;50.070;8.436;2024-02-16T06:50:09;99778.28;;;10.14;100.00
40730;BME280;26418;50.070;8.436;2024-02-16T06:52:34;99789.69;;;10.11;100.00
40730;BME280;26418;50.070;8.436;2024-02-16T06:55:00;99776.25;;;9.91;100.00
40730;BME280;26418;50.070;8.436;2024-02-16T06:57:25;99793.69;;;9.99;100.00
40730;BME280;26418;50.070;8.436;2024-02-16T06:59:54;99799.28;;;9.89;100.00
40730;BME280;26418;50.070;8.436;2024-02-16T07:02:22;99790.06;;;9.76;100.00
40730;BME280;26418;50.070;8.436;2024-02-16T07:04:48;99812.88;;;9.84;100.00
40730;BME280;26418;50.070;8.436;2024-02-16T07:07:13;99817.78;;;9.82;100.00
40730;BME280;26418;50.070;8.436;2024-02-16T07:09:39;99817.28;;;9.80;100.00
40730;BME280;26418;50.070;8.436;2024-02-16T07:12:05;99823.19;;;9.82;100.00
40730;BME280;26418;50.070;8.436;2024-02-16T07:14:32;99831.28;;;9.82;100.00
40730;BME280;26418;50.070;8.436;2024-02-16T07:16:57;99813.66;;;9.70;100.00
40730;BME280;26418;50.070;8.436;2024-02-16T07:19:23;99821.69;;;9.75;100.00
40730;BME280;26418;50.070;8.436;2024-02-16T07:21:50;99829.09;;;9.84;100.00
40730;BME280;26418;50.070;8.436;2024-02-16T07:24:16;99822.28;;;9.86;100.00
40730;BME280;26418;50.070;8.436;2024-02-16T07:26:41;99833.00;;;9.91;100.00
40730;BME280;26418;50.070;8.436;2024-02-16T07:29:07;99836.34;;;10.02;100.00
40730;BME280;26418;50.070;8.436;2024-02-16T07:31:34;99846.66;;;10.14;100.00
40730;BME280;26418;50.070;8.436;2024-02-16T07:34:00;99840.81;;;10.21;100.00
40730;BME280;26418;50.070;8.436;2024-02-16T07:36:26;99829.31;;;10.29;100.00
40730;BME280;26418;50.070;8.436;2024-02-16T07:38:51;99841.78;;;10.44;100.00
40730;BME280;26418;50.070;8.436;2024-02-16T07:41:17;99842.34;;;10.55;100.00
40730;BME280;26418;50.070;8.436;2024-02-16T07:43:43;99856.19;;;10.67;100.00
40730;BME280;26418;50.070;8.436;2024-02-16T07:46:08;99853.06;;;10.74;100.00
40730;BME280;26418;50.070;8.436;2024-02-16T07:48:34;99839.75;;;10.78;100.00
40730;BME280;26418;50.070;8.436;2024-02-16T07:51:00;99848.72;;;10.87;100.00
40730;BME280;26418;50.070;8.436;2024-02-16T07:53:28;99851.53;;;10.96;100.00
40730;BME280;26418;50.070;8.436;2024-02-16T07:55:54;99845.38;;;11.04;100.00
40730;BME280;26418;50.070;8.436;2024-02-16T07:58:19;99845.56;;;11.08;100.00
40730;BME280;26418;50.070;8.436;2024-02-16T08:00:45;99831.44;;;11.11;100.00
40730;BME280;26418;50.070;8.436;2024-02-16T08:03:10;99838.13;;;11.13;100.00
40730;BME280;26418;50.070;8.436;2024-02-16T08:05:36;99849.22;;;11.26;100.00
40730;BME280;26418;50.070;8.436;2024-02-16T08:08:02;99853.84;;;11.25;100.00
40730;BME280;26418;50.070;8.436;2024-02-16T08:10:28;99857.03;;;11.27;100.00
40730;BME280;26418;50.070;8.436;2024-02-16T08:12:54;99874.75;;;11.33;100.00
40730;BME280;26418;50.070;8.436;2024-02-16T08:15:19;99877.66;;;11.37;100.00
40730;BME280;26418;50.070;8.436;2024-02-16T08:17:51;99877.34;;;11.39;100.00
40730;BME280;26418;50.070;8.436;2024-02-16T08:20:17;99863.19;;;11.42;100.00
40730;BME280;26418;50.070;8.436;2024-02-16T08:22:43;99882.03;;;11.47;100.00
40730;BME280;26418;50.070;8.436;2024-02-16T08:25:08;99876.59;;;11.47;100.00
40730;BME280;26418;50.070;8.436;2024-02-16T08:27:34;99864.63;;;11.39;99.48
40730;BME280;26418;50.070;8.436;2024-02-16T08:30:00;99881.25;;;11.46;98.89
40730;BME280;26418;50.070;8.436;2024-02-16T08:32:27;99874.22;;;11.45;99.76
40730;BME280;26418;50.070;8.436;2024-02-16T08:34:53;99888.13;;;11.53;99.73
40730;BME280;26418;50.070;8.436;2024-02-16T08:37:21;99878.22;;;11.48;99.48
40730;BME280;26418;50.070;8.436;2024-02-16T08:39:47;99886.25;;;11.53;99.88
40730;BME280;26418;50.070;8.436;2024-02-16T08:42:13;99885.59;;;11.56;98.35
40730;BME280;26418;50.070;8.436;2024-02-16T08:44:39;99879.09;;;11.57;99.76
40730;BME280;26418;50.070;8.436;2024-02-16T08:47:06;99885.38;;;11.67;99.86
40730;BME280;26418;50.070;8.436;2024-02-16T08:49:33;99872.31;;;11.69;98.60
40730;BME280;26418;50.070;8.436;2024-02-16T08:51:58;99876.50;;;11.75;98.49
40730;BME280;26418;50.070;8.436;2024-02-16T08:54:24;99879.56;;;11.82;98.13
40730;BME280;26418;50.070;8.436;2024-02-16T08:56:51;99887.25;;;11.89;98.71
40730;BME280;26418;50.070;8.436;2024-02-16T08:59:17;99885.50;;;11.93;98.83
40730;BME280;26418;50.070;8.436;2024-02-16T09:01:43;99889.75;;;11.99;97.17
40730;BME280;26418;50.070;8.436;2024-02-16T09:04:08;99888.00;;;12.03;97.53
40730;BME280;26418;50.070;8.436;2024-02-16T09:06:34;99876.22;;;12.08;97.70
40730;BME280;26418;50.070;8.436;2024-02-16T09:09:00;99886.94;;;12.13;97.42
40730;BME280;26418;50.070;8.436;2024-02-16T09:11:26;99891.31;;;12.23;97.31
40730;BME280;26418;50.070;8.436;2024-02-16T09:13:52;99892.91;;;12.24;96.45
40730;BME280;26418;50.070;8.436;2024-02-16T09:16:18;99894.78;;;12.23;96.07
40730;BME280;26418;50.070;8.436;2024-02-16T09:18:44;99894.31;;;12.21;95.84
40730;BME280;26418;50.070;8.436;2024-02-16T09:21:10;99900.88;;;12.20;95.40
40730;BME280;26418;50.070;8.436;2024-02-16T09:23:37;99906.72;;;12.14;95.14
40730;BME280;26418;50.070;8.436;2024-02-16T09:26:03;99915.78;;;12.09;94.44
40730;BME280;26418;50.070;8.436;2024-02-16T09:28:28;99915.28;;;12.07;95.44
40730;BME280;26418;50.070;8.436;2024-02-16T09:30:55;99913.75;;;12.15;94.88
40730;BME280;26418;50.070;8.436;2024-02-16T09:33:21;99908.00;;;12.16;95.28
40730;BME280;26418;50.070;8.436;2024-02-16T09:35:48;99916.31;;;12.20;94.48
40730;BME280;26418;50.070;8.436;2024-02-16T09:38:13;99929.63;;;12.30;95.16
40730;BME280;26418;50.070;8.436;2024-02-16T09:40:38;99917.00;;;12.34;95.12
40730;BME280;26418;50.070;8.436;2024-02-16T09:43:05;99922.50;;;12.43;94.02
40730;BME280;26418;50.070;8.436;2024-02-16T09:45:32;99926.66;;;12.49;94.40
40730;BME280;26418;50.070;8.436;2024-02-16T09:47:58;99929.72;;;12.56;94.42
40730;BME280;26418;50.070;8.436;2024-02-16T09:50:24;99927.34;;;12.64;92.81
40730;BME280;26418;50.070;8.436;2024-02-16T09:52:52;99931.06;;;12.77;92.90
40730;BME280;26418;50.070;8.436;2024-02-16T09:55:18;99926.00;;;12.84;92.77
40730;BME280;26418;50.070;8.436;2024-02-16T09:57:44;99929.00;;;12.82;92.09
40730;BME280;26418;50.070;8.436;2024-02-16T10:00:10;99925.34;;;12.87;92.12
40730;BME280;26418;50.070;8.436;2024-02-16T10:02:46;99928.56;;;12.98;92.28
40730;BME280;26418;50.070;8.436;2024-02-16T10:05:16;99934.19;;;13.10;92.78
40730;BME280;26418;50.070;8.436;2024-02-16T10:07:43;99928.91;;;13.23;93.13
40730;BME280;26418;50.070;8.436;2024-02-16T10:10:28;99929.88;;;13.35;91.81
40730;BME280;26418;50.070;8.436;2024-02-16T10:13:07;99942.25;;;13.50;90.66
40730;BME280;26418;50.070;8.436;2024-02-16T10:15:36;99937.63;;;13.51;89.18
40730;BME280;26418;50.070;8.436;2024-02-16T10:18:06;99947.84;;;13.54;88.74
40730;BME280;26418;50.070;8.436;2024-02-16T10:20:33;99946.72;;;13.46;87.32
40730;BME280;26418;50.070;8.436;2024-02-16T10:25:29;99949.59;;;13.41;87.78
40730;BME280;26418;50.070;8.436;2024-02-16T10:27:57;99950.84;;;13.44;88.54
40730;BME280;26418;50.070;8.436;2024-02-16T10:30:29;99954.72;;;13.51;88.89
40730;BME280;26418;50.070;8.436;2024-02-16T10:32:57;99965.91;;;13.59;89.03
40730;BME280;26418;50.070;8.436;2024-02-16T10:35:24;99956.94;;;13.67;88.67
40730;BME280;26418;50.070;8.436;2024-02-16T10:37:50;99960.94;;;13.78;87.77
40730;BME280;26418;50.070;8.436;2024-02-16T10:40:18;99956.78;;;13.81;86.18
40730;BME280;26418;50.070;8.436;2024-02-16T10:42:49;99953.44;;;13.84;86.27
40730;BME280;26418;50.070;8.436;2024-02-16T10:45:16;99961.25;;;13.86;84.95
40730;BME280;26418;50.070;8.436;2024-02-16T10:47:42;99963.16;;;13.85;85.38
40730;BME280;26418;50.070;8.436;2024-02-16T10:50:08;99970.69;;;13.97;85.63
40730;BME280;26418;50.070;8.436;2024-02-16T10:52:36;99959.47;;;13.98;84.71
40730;BME280;26418;50.070;8.436;2024-02-16T10:55:05;99967.31;;;14.09;84.95
40730;BME280;26418;50.070;8.436;2024-02-16T10:57:31;99962.81;;;14.22;85.60
40730;BME280;26418;50.070;8.436;2024-02-16T10:59:58;99973.16;;;14.37;84.38
40730;BME280;26418;50.070;8.436;2024-02-16T11:02:24;99963.41;;;14.36;83.78
40730;BME280;26418;50.070;8.436;2024-02-16T11:04:51;99960.19;;;14.43;83.93
40730;BME280;26418;50.070;8.436;2024-02-16T11:07:19;99953.28;;;14.45;83.65
40730;BME280;26418;50.070;8.436;2024-02-16T11:09:45;99956.78;;;14.55;83.14
40730;BME280;26418;50.070;8.436;2024-02-16T11:12:15;99964.66;;;14.48;81.30
40730;BME280;26418;50.070;8.436;2024-02-16T11:17:13;99961.66;;;14.31;81.96
40730;BME280;26418;50.070;8.436;2024-02-16T11:19:43;99960.22;;;14.25;82.76
40730;BME280;26418;50.070;8.436;2024-02-16T11:22:09;99959.91;;;14.27;83.22
40730;BME280;26418;50.070;8.436;2024-02-16T11:24:42;99965.81;;;14.29;82.04
40730;BME280;26418;50.070;8.436;2024-02-16T11:27:10;99966.66;;;14.21;81.33
40730;BME280;26418;50.070;8.436;2024-02-16T11:29:36;99957.38;;;14.13;81.82
40730;BME280;26418;50.070;8.436;2024-02-16T11:32:02;99961.31;;;14.33;82.41
40730;BME280;26418;50.070;8.436;2024-02-16T11:34:29;99963.16;;;14.59;81.83
40730;BME280;26418;50.070;8.436;2024-02-16T11:36:59;99967.97;;;15.01;80.68
40730;BME280;26418;50.070;8.436;2024-02-16T11:39:25;99958.84;;;15.27;78.36
40730;BME280;26418;50.070;8.436;2024-02-16T11:42:08;99950.81;;;15.30;76.07
40730;BME280;26418;50.070;8.436;2024-02-16T11:44:36;99959.03;;;15.43;76.43
40730;BME280;26418;50.070;8.436;2024-02-16T11:47:06;99954.72;;;15.41;76.57
40730;BME280;26418;50.070;8.436;2024-02-16T11:49:36;99949.94;;;15.38;74.89
40730;BME280;26418;50.070;8.436;2024-02-16T11:52:04;99960.47;;;15.19;75.41
40730;BME280;26418;50.070;8.436;2024-02-16T11:54:30;99955.75;;;15.07;74.95
40730;BME280;26418;50.070;8.436;2024-02-16T11:56:56;99962.84;;;14.99;75.95
40730;BME280;26418;50.070;8.436;2024-02-16T11:59:22;99964.34;;;14.88;76.10
40730;BME280;26418;50.070;8.436;2024-02-16T12:01:50;99966.78;;;14.81;77.35
40730;BME280;26418;50.070;8.436;2024-02-16T12:06:45;99954.69;;;14.60;78.33
40730;BME280;26418;50.070;8.436;2024-02-16T12:09:15;99969.09;;;14.61;78.72
40730;BME280;26418;50.070;8.436;2024-02-16T12:11:42;99967.66;;;14.55;78.78
40730;BME280;26418;50.070;8.436;2024-02-16T12:14:07;99967.81;;;14.50;79.11
40730;BME280;26418;50.070;8.436;2024-02-16T12:16:33;99967.19;;;14.44;80.04
40730;BME280;26418;50.070;8.436;2024-02-16T12:19:05;99960.00;;;14.48;80.69
40730;BME280;26418;50.070;8.436;2024-02-16T12:21:30;99960.44;;;14.59;80.49
40730;BME280;26418;50.070;8.436;2024-02-16T12:23:56;99961.41;;;14.63;79.97
40730;BME280;26418;50.070;8.436;2024-02-16T12:26:21;99957.03;;;14.80;79.77
40730;BME280;26418;50.070;8.436;2024-02-16T12:28:47;99956.13;;;14.97;79.27
40730;BME280;26418;50.070;8.436;2024-02-16T12:31:23;99955.16;;;15.22;78.67
40730;BME280;26418;50.070;8.436;2024-02-16T12:33:49;99952.72;;;15.51;77.34
40730;BME280;26418;50.070;8.436;2024-02-16T12:36:15;99956.53;;;15.59;75.81
40730;BME280;26418;50.070;8.436;2024-02-16T12:38:41;99961.09;;;15.67;76.19
40730;BME280;26418;50.070;8.436;2024-02-16T12:41:07;99956.56;;;15.71;75.47
40730;BME280;26418;50.070;8.436;2024-02-16T12:43:33;99955.13;;;15.74;75.19
40730;BME280;26418;50.070;8.436;2024-02-16T12:45:58;99959.22;;;15.80;74.69
40730;BME280;26418;50.070;8.436;2024-02-16T12:48:27;99952.84;;;15.76;75.18
40730;BME280;26418;50.070;8.436;2024-02-16T12:50:54;99963.88;;;15.79;75.45
40730;BME280;26418;50.070;8.436;2024-02-16T12:53:19;99961.59;;;15.81;74.36
40730;BME280;26418;50.070;8.436;2024-02-16T12:55:46;99951.78;;;15.89;74.21
40730;BME280;26418;50.070;8.436;2024-02-16T12:58:12;99959.97;;;15.89;73.23
40730;BME280;26418;50.070;8.436;2024-02-16T13:00:38;99955.53;;;15.84;73.15